»·PEaware :: UAL717 KLAX-KSFO

UAL717 :: KLAX-KSFO

FLIGHT INFORMATION

Flight Status: Arrived
Operator:
United Airlines
More flights by this operator :: More flights under this callsign
Pilot: Ty S. (2873)
Aircraft: AIRBUS A320
(A320)
More flights by this aircraft type
Origin: KLAX Los Angeles Intl
United States
Destination: KSFO San Francisco Intl
United States
More flights between these airports :: More routes between these airports
Route: +SUMMR2 STOKD SERFR SERFR4
File this flight plan on PilotEdge
Remarks: RMK / SIMBRIEF
Altitude:
(Current/Filed)
36,000ft
Speed:
(Current/Filed)
447kts
Departed: 13-Dec-19 06:48 PM
Arrived: 13-Dec-19 07:46 PM
Distance/Time
Traveled:
293nm/0:58
Distance/Time
To Go:
Arrived

Flight Plot

Page will automatically refresh every two minutes.

Flight plan parsing failed; only flown route is shown


Map Options




Map Legend


Flown Route
Filed Route
Departure Airport
Arrival Airport
Navaid (VOR, NDB)
Fix

Horizontal Profiles

Position Reports

Time Latitude Longitude Heading Altitude Ground
Speed
13-Dec-19 18:17 33.941135 -118.400140 93 136ft 0kts
13-Dec-19 18:18 33.941135 -118.400140 93 136ft 0kts
13-Dec-19 18:19 33.941135 -118.400140 93 136ft 0kts
13-Dec-19 18:19 33.941135 -118.400140 93 136ft 0kts
13-Dec-19 18:21 33.941135 -118.400140 93 136ft 0kts
13-Dec-19 18:22 33.941135 -118.400140 93 136ft 0kts
13-Dec-19 18:22 33.941135 -118.400140 93 136ft 0kts
13-Dec-19 18:23 33.941135 -118.400140 93 136ft 0kts
13-Dec-19 18:25 33.941135 -118.400140 93 136ft 0kts
13-Dec-19 18:25 33.941135 -118.400140 93 136ft 0kts
13-Dec-19 18:26 33.941135 -118.400140 93 136ft 0kts
13-Dec-19 18:27 33.941135 -118.400140 93 136ft 0kts
13-Dec-19 18:28 33.941135 -118.400140 93 136ft 0kts
13-Dec-19 18:29 33.941135 -118.400140 93 136ft 0kts
13-Dec-19 18:30 33.941135 -118.400140 93 136ft 0kts
13-Dec-19 18:31 33.941135 -118.400140 93 136ft 0kts
13-Dec-19 18:32 33.941153 -118.400467 93 136ft 2kts
13-Dec-19 18:33 33.941451 -118.400836 178 136ft 0kts
13-Dec-19 18:34 33.941450 -118.400836 178 136ft 0kts
13-Dec-19 18:35 33.940512 -118.400704 173 136ft 2kts
13-Dec-19 18:36 33.938946 -118.398405 84 136ft 16kts
13-Dec-19 18:37 33.939543 -118.392545 83 136ft 20kts
13-Dec-19 18:38 33.940244 -118.385644 83 136ft 19kts
13-Dec-19 18:39 33.940711 -118.381085 83 136ft 0kts
13-Dec-19 18:40 33.940727 -118.380916 83 136ft 4kts
13-Dec-19 18:41 33.940763 -118.380346 100 136ft 0kts
13-Dec-19 18:42 33.940763 -118.380346 100 136ft 0kts
13-Dec-19 18:43 33.940763 -118.380345 100 136ft 0kts
13-Dec-19 18:44 33.939819 -118.380449 261 136ft 0kts
13-Dec-19 18:45 33.939819 -118.380449 261 136ft 0kts
13-Dec-19 18:46 33.939819 -118.380449 261 136ft 0kts
13-Dec-19 18:47 33.936453 -118.411176 262 686ft 176kts
13-Dec-19 18:48 33.930639 -118.472876 265 3327ft 213kts
13-Dec-19 18:49 33.924087 -118.553083 265 6069ft 255kts
13-Dec-19 18:50 33.917722 -118.638608 271 9301ft 261kts
13-Dec-19 18:51 33.917495 -118.727492 270 11383ft 301kts
13-Dec-19 18:52 33.917038 -118.829536 271 12022ft 304kts
13-Dec-19 18:53 33.919997 -118.933412 272 13631ft 315kts
13-Dec-19 18:54 33.933030 -119.037259 299 15990ft 327kts
13-Dec-19 18:55 33.981720 -119.131416 299 18139ft 336kts
13-Dec-19 18:56 34.044371 -119.215941 320 20034ft 353kts
13-Dec-19 18:57 34.125144 -119.285304 320 21788ft 361kts
13-Dec-19 18:58 34.207516 -119.356313 320 23364ft 369kts
13-Dec-19 18:59 34.291767 -119.429102 320 24801ft 376kts
13-Dec-19 19:00 34.377771 -119.503590 320 26088ft 384kts
13-Dec-19 19:01 34.457508 -119.589497 311 27275ft 386kts
13-Dec-19 19:02 34.530657 -119.679502 311 28362ft 392kts
13-Dec-19 19:03 34.607344 -119.774114 311 29426ft 398kts
13-Dec-19 19:04 34.700438 -119.849758 328 30394ft 412kts
13-Dec-19 19:05 34.802825 -119.912872 323 31260ft 414kts
13-Dec-19 19:06 34.874084 -120.016934 298 32233ft 401kts
13-Dec-19 19:07 34.929183 -120.132784 298 33552ft 389kts
13-Dec-19 19:08 34.984357 -120.243402 298 34796ft 376kts
13-Dec-19 19:09 35.050129 -120.341048 313 35811ft 380kts
13-Dec-19 19:10 35.131931 -120.422240 313 36183ft 379kts
13-Dec-19 19:11 35.213527 -120.503275 313 36180ft 379kts
13-Dec-19 19:12 35.295200 -120.584527 313 36179ft 379kts
13-Dec-19 19:13 35.371757 -120.660878 312 36173ft 378kts
13-Dec-19 19:14 35.453331 -120.742436 312 36194ft 380kts
13-Dec-19 19:15 35.535212 -120.824524 312 36200ft 380kts
13-Dec-19 19:16 35.617005 -120.906741 312 36194ft 379kts
13-Dec-19 19:17 35.698710 -120.989110 311 36132ft 384kts
13-Dec-19 19:18 35.782097 -121.073384 311 35975ft 388kts
13-Dec-19 19:19 35.864847 -121.157246 311 35020ft 383kts
13-Dec-19 19:20 35.947369 -121.241132 311 33382ft 388kts
13-Dec-19 19:21 36.030747 -121.326110 312 31676ft 392kts
13-Dec-19 19:22 36.117011 -121.402551 319 29950ft 396kts
13-Dec-19 19:23 36.208811 -121.474228 319 28163ft 382kts
13-Dec-19 19:24 36.297255 -121.543470 320 26412ft 372kts
13-Dec-19 19:25 36.383648 -121.611274 320 24676ft 362kts
13-Dec-19 19:26 36.465729 -121.675860 320 23003ft 353kts
13-Dec-19 19:27 36.547536 -121.740425 320 21320ft 344kts
13-Dec-19 19:28 36.627290 -121.803553 321 19663ft 336kts
13-Dec-19 19:29 36.705094 -121.865285 321 18040ft 328kts
13-Dec-19 19:30 36.789766 -121.907638 340 16378ft 333kts
13-Dec-19 19:31 36.878629 -121.932443 340 14785ft 325kts
13-Dec-19 19:32 36.962822 -121.957241 336 13376ft 309kts
13-Dec-19 19:33 37.043756 -121.988887 336 11769ft 298kts
13-Dec-19 19:34 37.118624 -122.018122 337 10396ft 285kts
13-Dec-19 19:35 37.190499 -122.046244 338 9756ft 258kts
13-Dec-19 19:36 37.258840 -122.073065 338 9254ft 257kts
13-Dec-19 19:37 37.325391 -122.099094 339 7996ft 242kts
13-Dec-19 19:38 37.389359 -122.124223 343 6078ft 237kts
13-Dec-19 19:39 37.454533 -122.146257 343 4845ft 240kts
13-Dec-19 19:40 37.516967 -122.167608 342 3982ft 217kts
13-Dec-19 19:41 37.553329 -122.219095 298 2493ft 203kts
13-Dec-19 19:42 37.577308 -122.276330 297 1505ft 155kts
13-Dec-19 19:43 37.595295 -122.319263 297 751ft 135kts
13-Dec-19 19:44 37.613033 -122.361504 297 41ft 131kts
13-Dec-19 19:45 37.618960 -122.378201 269 22ft 3kts
13-Dec-19 19:46 37.619284 -122.381176 298 22ft 14kts
13-Dec-19 19:47 37.619189 -122.383515 287 22ft 2kts

Navigation Log

Ident Type
Flight plan parsing failed, navigation log unavailable